sensor_id;sensor_type;location;lat;lon;timestamp;temperature;humidity
23801;DHT22;12081;48.614;10.226;2022-12-18T00:01:13;-8.20;99.90
23801;DHT22;12081;48.614;10.226;2022-12-18T00:03:59;-8.30;99.90
23801;DHT22;12081;48.614;10.226;2022-12-18T00:06:44;-8.30;99.90
23801;DHT22;12081;48.614;10.226;2022-12-18T00:09:28;-8.30;99.90
23801;DHT22;12081;48.614;10.226;2022-12-18T00:12:13;-8.20;99.90
23801;DHT22;12081;48.614;10.226;2022-12-18T00:14:57;-8.20;99.90
23801;DHT22;12081;48.614;10.226;2022-12-18T00:17:41;-8.30;99.90
23801;DHT22;12081;48.614;10.226;2022-12-18T00:20:24;-8.30;99.90
23801;DHT22;12081;48.614;10.226;2022-12-18T00:23:09;-8.20;99.90
23801;DHT22;12081;48.614;10.226;2022-12-18T00:25:53;-8.30;99.90
23801;DHT22;12081;48.614;10.226;2022-12-18T00:28:37;-8.30;99.90
23801;DHT22;12081;48.614;10.226;2022-12-18T00:31:24;-8.30;99.90
23801;DHT22;12081;48.614;10.226;2022-12-18T00:34:11;-8.30;99.90
23801;DHT22;12081;48.614;10.226;2022-12-18T00:36:56;-8.30;99.90
23801;DHT22;12081;48.614;10.226;2022-12-18T00:39:40;-8.30;99.90
23801;DHT22;12081;48.614;10.226;2022-12-18T00:42:24;-8.30;99.90
23801;DHT22;12081;48.614;10.226;2022-12-18T00:45:31;-8.30;99.90
23801;DHT22;12081;48.614;10.226;2022-12-18T00:48:15;-8.40;99.90
23801;DHT22;12081;48.614;10.226;2022-12-18T00:50:59;-8.40;99.90
23801;DHT22;12081;48.614;10.226;2022-12-18T00:53:44;-8.40;99.90
23801;DHT22;12081;48.614;10.226;2022-12-18T00:56:28;-8.40;99.90
23801;DHT22;12081;48.614;10.226;2022-12-18T00:59:12;-8.40;99.90
23801;DHT22;12081;48.614;10.226;2022-12-18T01:01:56;-8.40;99.90
23801;DHT22;12081;48.614;10.226;2022-12-18T01:04:40;-8.30;99.90
23801;DHT22;12081;48.614;10.226;2022-12-18T01:07:24;-8.30;99.90
23801;DHT22;12081;48.614;10.226;2022-12-18T01:10:10;-8.30;99.90
23801;DHT22;12081;48.614;10.226;2022-12-18T01:12:55;-8.30;99.90
23801;DHT22;12081;48.614;10.226;2022-12-18T01:15:40;-8.30;99.90
23801;DHT22;12081;48.614;10.226;2022-12-18T01:18:31;-8.30;99.90
23801;DHT22;12081;48.614;10.226;2022-12-18T01:21:16;-8.30;99.90
23801;DHT22;12081;48.614;10.226;2022-12-18T01:24:01;-8.30;99.90
23801;DHT22;12081;48.614;10.226;2022-12-18T01:26:45;-8.30;99.90
23801;DHT22;12081;48.614;10.226;2022-12-18T01:29:30;-8.30;99.90
23801;DHT22;12081;48.614;10.226;2022-12-18T01:32:14;-8.40;99.90
23801;DHT22;12081;48.614;10.226;2022-12-18T01:34:58;-8.40;99.90
23801;DHT22;12081;48.614;10.226;2022-12-18T01:37:42;-8.50;99.90
23801;DHT22;12081;48.614;10.226;2022-12-18T01:40:26;-8.60;99.90
23801;DHT22;12081;48.614;10.226;2022-12-18T01:43:10;-8.70;99.90
23801;DHT22;12081;48.614;10.226;2022-12-18T01:45:54;-8.70;99.90
23801;DHT22;12081;48.614;10.226;2022-12-18T01:48:38;-8.70;99.90
23801;DHT22;12081;48.614;10.226;2022-12-18T01:51:23;-8.70;99.90
23801;DHT22;12081;48.614;10.226;2022-12-18T01:54:08;-8.70;99.90
23801;DHT22;12081;48.614;10.226;2022-12-18T01:56:52;-8.70;99.90
23801;DHT22;12081;48.614;10.226;2022-12-18T01:59:36;-8.70;99.90
23801;DHT22;12081;48.614;10.226;2022-12-18T02:02:22;-8.70;99.90
23801;DHT22;12081;48.614;10.226;2022-12-18T02:05:06;-8.70;99.90
23801;DHT22;12081;48.614;10.226;2022-12-18T02:10:53;-8.70;99.90
23801;DHT22;12081;48.614;10.226;2022-12-18T02:14:01;-8.70;99.90
23801;DHT22;12081;48.614;10.226;2022-12-18T02:17:01;-8.70;99.90
23801;DHT22;12081;48.614;10.226;2022-12-18T02:20:08;-8.60;99.90
23801;DHT22;12081;48.614;10.226;2022-12-18T02:26:14;-8.60;99.90
23801;DHT22;12081;48.614;10.226;2022-12-18T02:29:06;-8.60;99.90
23801;DHT22;12081;48.614;10.226;2022-12-18T02:31:56;-8.70;99.90
23801;DHT22;12081;48.614;10.226;2022-12-18T02:34:43;-8.60;99.90
23801;DHT22;12081;48.614;10.226;2022-12-18T02:37:29;-8.60;99.90
23801;DHT22;12081;48.614;10.226;2022-12-18T02:40:15;-8.60;99.90
23801;DHT22;12081;48.614;10.226;2022-12-18T02:43:12;-8.60;99.90
23801;DHT22;12081;48.614;10.226;2022-12-18T02:45:58;-8.60;99.90
23801;DHT22;12081;48.614;10.226;2022-12-18T02:48:43;-8.60;99.90
23801;DHT22;12081;48.614;10.226;2022-12-18T02:51:34;-8.60;99.90
23801;DHT22;12081;48.614;10.226;2022-12-18T02:54:26;-8.50;99.90
23801;DHT22;12081;48.614;10.226;2022-12-18T02:57:37;-8.50;99.90
23801;DHT22;12081;48.614;10.226;2022-12-18T03:00:34;-8.40;99.90
23801;DHT22;12081;48.614;10.226;2022-12-18T03:03:42;-8.60;99.90
23801;DHT22;12081;48.614;10.226;2022-12-18T03:06:35;-8.40;99.90
23801;DHT22;12081;48.614;10.226;2022-12-18T03:09:36;-8.40;99.90
23801;DHT22;12081;48.614;10.226;2022-12-18T03:12:34;-8.30;99.90
23801;DHT22;12081;48.614;10.226;2022-12-18T03:15:24;-8.40;99.90
23801;DHT22;12081;48.614;10.226;2022-12-18T03:18:23;-8.30;99.90
23801;DHT22;12081;48.614;10.226;2022-12-18T03:21:09;-8.20;99.90
23801;DHT22;12081;48.614;10.226;2022-12-18T03:23:55;-8.20;99.90
23801;DHT22;12081;48.614;10.226;2022-12-18T03:26:43;-7.80;99.90
23801;DHT22;12081;48.614;10.226;2022-12-18T03:29:36;-6.90;99.90
23801;DHT22;12081;48.614;10.226;2022-12-18T03:32:29;-8.10;99.90
23801;DHT22;12081;48.614;10.226;2022-12-18T03:35:19;-6.80;99.90
23801;DHT22;12081;48.614;10.226;2022-12-18T03:38:05;-8.10;99.90
23801;DHT22;12081;48.614;10.226;2022-12-18T03:41:11;-6.50;99.90
23801;DHT22;12081;48.614;10.226;2022-12-18T03:44:03;-8.10;99.90
23801;DHT22;12081;48.614;10.226;2022-12-18T03:47:06;-8.00;99.90
23801;DHT22;12081;48.614;10.226;2022-12-18T03:55:46;-8.00;99.90
23801;DHT22;12081;48.614;10.226;2022-12-18T03:58:33;-8.10;99.90
23801;DHT22;12081;48.614;10.226;2022-12-18T04:01:23;-6.50;99.90
23801;DHT22;12081;48.614;10.226;2022-12-18T04:04:08;-6.60;99.90
23801;DHT22;12081;48.614;10.226;2022-12-18T04:06:54;-8.10;99.90
23801;DHT22;12081;48.614;10.226;2022-12-18T04:09:40;-8.10;99.90
23801;DHT22;12081;48.614;10.226;2022-12-18T04:12:26;-6.80;99.90
23801;DHT22;12081;48.614;10.226;2022-12-18T04:15:11;-8.10;99.90
23801;DHT22;12081;48.614;10.226;2022-12-18T04:17:56;-6.80;99.90
23801;DHT22;12081;48.614;10.226;2022-12-18T04:20:40;-6.70;99.90
23801;DHT22;12081;48.614;10.226;2022-12-18T04:23:24;-8.10;99.90
23801;DHT22;12081;48.614;10.226;2022-12-18T04:26:08;-8.00;99.90
23801;DHT22;12081;48.614;10.226;2022-12-18T04:28:52;-6.60;99.90
23801;DHT22;12081;48.614;10.226;2022-12-18T04:31:37;-6.50;99.90
23801;DHT22;12081;48.614;10.226;2022-12-18T04:34:21;-7.90;99.90
23801;DHT22;12081;48.614;10.226;2022-12-18T04:37:05;-8.20;99.90
23801;DHT22;12081;48.614;10.226;2022-12-18T04:39:50;-6.60;99.90
23801;DHT22;12081;48.614;10.226;2022-12-18T04:42:35;-7.90;99.90
23801;DHT22;12081;48.614;10.226;2022-12-18T04:45:19;-6.90;99.90
23801;DHT22;12081;48.614;10.226;2022-12-18T04:48:05;-6.90;99.90
23801;DHT22;12081;48.614;10.226;2022-12-18T04:50:50;-7.10;99.90
23801;DHT22;12081;48.614;10.226;2022-12-18T04:53:34;-6.80;99.90
23801;DHT22;12081;48.614;10.226;2022-12-18T04:56:18;-6.40;99.90
23801;DHT22;12081;48.614;10.226;2022-12-18T04:59:02;-6.80;99.90
23801;DHT22;12081;48.614;10.226;2022-12-18T05:01:47;-8.10;99.90
23801;DHT22;12081;48.614;10.226;2022-12-18T05:04:31;-7.90;99.90
23801;DHT22;12081;48.614;10.226;2022-12-18T05:07:15;-7.90;99.90
23801;DHT22;12081;48.614;10.226;2022-12-18T05:09:59;-7.90;99.90
23801;DHT22;12081;48.614;10.226;2022-12-18T05:12:43;-7.90;99.90
23801;DHT22;12081;48.614;10.226;2022-12-18T05:15:42;-7.90;99.90
23801;DHT22;12081;48.614;10.226;2022-12-18T05:18:35;-7.90;99.90
23801;DHT22;12081;48.614;10.226;2022-12-18T05:21:19;-6.00;99.90
23801;DHT22;12081;48.614;10.226;2022-12-18T05:24:04;-7.80;99.90
23801;DHT22;12081;48.614;10.226;2022-12-18T05:26:48;-7.80;99.90
23801;DHT22;12081;48.614;10.226;2022-12-18T05:29:32;-7.80;99.90
23801;DHT22;12081;48.614;10.226;2022-12-18T05:32:16;-7.70;99.90
23801;DHT22;12081;48.614;10.226;2022-12-18T05:35:00;-7.70;99.90
23801;DHT22;12081;48.614;10.226;2022-12-18T05:37:44;-7.70;99.90
23801;DHT22;12081;48.614;10.226;2022-12-18T05:40:28;-7.70;99.90
23801;DHT22;12081;48.614;10.226;2022-12-18T05:43:13;-7.60;99.90
23801;DHT22;12081;48.614;10.226;2022-12-18T05:45:57;-7.60;99.90
23801;DHT22;12081;48.614;10.226;2022-12-18T05:48:42;-7.60;99.90
23801;DHT22;12081;48.614;10.226;2022-12-18T05:51:26;-7.60;99.90
23801;DHT22;12081;48.614;10.226;2022-12-18T05:54:11;-7.60;99.90
23801;DHT22;12081;48.614;10.226;2022-12-18T05:56:55;-7.60;99.90
23801;DHT22;12081;48.614;10.226;2022-12-18T05:59:39;-7.50;99.90
23801;DHT22;12081;48.614;10.226;2022-12-18T06:02:23;-7.50;99.90
23801;DHT22;12081;48.614;10.226;2022-12-18T06:05:07;-5.50;99.90
23801;DHT22;12081;48.614;10.226;2022-12-18T06:07:52;-7.40;99.90
23801;DHT22;12081;48.614;10.226;2022-12-18T06:10:36;-7.30;99.90
23801;DHT22;12081;48.614;10.226;2022-12-18T06:13:21;-7.40;99.90
23801;DHT22;12081;48.614;10.226;2022-12-18T06:16:06;-7.40;99.90
23801;DHT22;12081;48.614;10.226;2022-12-18T06:18:50;-7.30;99.90
23801;DHT22;12081;48.614;10.226;2022-12-18T06:21:34;-5.90;99.90
23801;DHT22;12081;48.614;10.226;2022-12-18T06:24:18;-7.60;99.90
23801;DHT22;12081;48.614;10.226;2022-12-18T06:27:02;-7.40;99.90
23801;DHT22;12081;48.614;10.226;2022-12-18T06:29:47;-7.30;99.90
23801;DHT22;12081;48.614;10.226;2022-12-18T06:32:36;-7.30;99.90
23801;DHT22;12081;48.614;10.226;2022-12-18T06:35:32;-6.00;99.90
23801;DHT22;12081;48.614;10.226;2022-12-18T06:38:16;-7.30;99.90
23801;DHT22;12081;48.614;10.226;2022-12-18T06:41:00;-7.30;99.90
23801;DHT22;12081;48.614;10.226;2022-12-18T06:43:45;-5.80;99.90
23801;DHT22;12081;48.614;10.226;2022-12-18T06:46:29;-5.90;99.90
23801;DHT22;12081;48.614;10.226;2022-12-18T06:49:13;-7.40;99.90
23801;DHT22;12081;48.614;10.226;2022-12-18T06:51:58;-6.00;99.90
23801;DHT22;12081;48.614;10.226;2022-12-18T06:54:45;-5.70;99.90
23801;DHT22;12081;48.614;10.226;2022-12-18T06:57:30;-7.70;99.90
23801;DHT22;12081;48.614;10.226;2022-12-18T07:00:14;-5.90;99.90
23801;DHT22;12081;48.614;10.226;2022-12-18T07:03:02;-7.10;99.90
23801;DHT22;12081;48.614;10.226;2022-12-18T07:05:46;-5.30;99.90
23801;DHT22;12081;48.614;10.226;2022-12-18T07:08:34;-6.60;99.90
23801;DHT22;12081;48.614;10.226;2022-12-18T07:11:19;-7.10;99.90
23801;DHT22;12081;48.614;10.226;2022-12-18T07:14:03;-7.20;99.90
23801;DHT22;12081;48.614;10.226;2022-12-18T07:16:55;-7.00;99.90
23801;DHT22;12081;48.614;10.226;2022-12-18T07:19:39;-6.70;99.90
23801;DHT22;12081;48.614;10.226;2022-12-18T07:22:24;-7.00;99.90
23801;DHT22;12081;48.614;10.226;2022-12-18T07:25:08;-7.00;99.90
23801;DHT22;12081;48.614;10.226;2022-12-18T07:27:52;-7.00;99.90
23801;DHT22;12081;48.614;10.226;2022-12-18T07:30:37;-6.90;99.90
23801;DHT22;12081;48.614;10.226;2022-12-18T07:33:22;-6.90;99.90
23801;DHT22;12081;48.614;10.226;2022-12-18T07:36:07;-6.90;99.90
23801;DHT22;12081;48.614;10.226;2022-12-18T07:38:51;-6.90;99.90
23801;DHT22;12081;48.614;10.226;2022-12-18T07:41:36;-6.80;99.90
23801;DHT22;12081;48.614;10.226;2022-12-18T07:44:20;-6.80;99.90
23801;DHT22;12081;48.614;10.226;2022-12-18T07:47:05;-6.80;99.90
23801;DHT22;12081;48.614;10.226;2022-12-18T07:49:48;-6.80;99.90
23801;DHT22;12081;48.614;10.226;2022-12-18T07:52:32;-6.70;99.90
23801;DHT22;12081;48.614;10.226;2022-12-18T07:55:17;-6.70;99.90
23801;DHT22;12081;48.614;10.226;2022-12-18T07:58:02;-6.60;99.90
23801;DHT22;12081;48.614;10.226;2022-12-18T08:00:46;-6.60;99.90
23801;DHT22;12081;48.614;10.226;2022-12-18T08:03:30;-6.60;99.90
23801;DHT22;12081;48.614;10.226;2022-12-18T08:06:14;-6.60;99.90
23801;DHT22;12081;48.614;10.226;2022-12-18T08:08:58;-6.60;99.90
23801;DHT22;12081;48.614;10.226;2022-12-18T08:11:42;-6.60;99.90
23801;DHT22;12081;48.614;10.226;2022-12-18T08:14:26;-5.30;99.90
23801;DHT22;12081;48.614;10.226;2022-12-18T08:17:10;-6.50;99.90
23801;DHT22;12081;48.614;10.226;2022-12-18T08:19:55;-6.40;99.90
23801;DHT22;12081;48.614;10.226;2022-12-18T08:22:39;-6.00;99.90
23801;DHT22;12081;48.614;10.226;2022-12-18T08:25:23;-6.40;99.90
23801;DHT22;12081;48.614;10.226;2022-12-18T08:28:07;-6.40;99.90
23801;DHT22;12081;48.614;10.226;2022-12-18T08:30:52;-6.40;99.90
23801;DHT22;12081;48.614;10.226;2022-12-18T08:33:37;-6.30;99.90
23801;DHT22;12081;48.614;10.226;2022-12-18T08:36:23;-6.30;99.90
23801;DHT22;12081;48.614;10.226;2022-12-18T08:39:07;-6.30;99.90
23801;DHT22;12081;48.614;10.226;2022-12-18T08:41:51;-6.20;99.90
23801;DHT22;12081;48.614;10.226;2022-12-18T08:44:54;-6.20;99.90
23801;DHT22;12081;48.614;10.226;2022-12-18T08:47:38;-6.20;99.90
23801;DHT22;12081;48.614;10.226;2022-12-18T08:50:22;-6.10;99.90
23801;DHT22;12081;48.614;10.226;2022-12-18T08:53:06;-6.00;99.90
23801;DHT22;12081;48.614;10.226;2022-12-18T08:55:50;-6.00;99.90
23801;DHT22;12081;48.614;10.226;2022-12-18T08:58:34;-6.00;99.90
23801;DHT22;12081;48.614;10.226;2022-12-18T09:01:19;-5.90;99.90
23801;DHT22;12081;48.614;10.226;2022-12-18T09:04:03;-5.90;99.90
23801;DHT22;12081;48.614;10.226;2022-12-18T09:06:48;-5.80;99.90
23801;DHT22;12081;48.614;10.226;2022-12-18T09:09:32;-5.70;99.90
23801;DHT22;12081;48.614;10.226;2022-12-18T09:12:16;-5.70;99.90
23801;DHT22;12081;48.614;10.226;2022-12-18T09:15:00;-5.70;99.90
23801;DHT22;12081;48.614;10.226;2022-12-18T09:17:44;-5.70;99.90
23801;DHT22;12081;48.614;10.226;2022-12-18T09:20:28;-5.70;99.90
23801;DHT22;12081;48.614;10.226;2022-12-18T09:23:14;-5.60;99.90
23801;DHT22;12081;48.614;10.226;2022-12-18T09:25:59;-5.60;99.90
23801;DHT22;12081;48.614;10.226;2022-12-18T09:28:43;-5.60;99.90
23801;DHT22;12081;48.614;10.226;2022-12-18T09:31:28;-5.60;99.90
23801;DHT22;12081;48.614;10.226;2022-12-18T09:34:12;-5.60;99.90
23801;DHT22;12081;48.614;10.226;2022-12-18T09:36:56;-5.50;99.90
23801;DHT22;12081;48.614;10.226;2022-12-18T09:39:40;-5.50;99.90
23801;DHT22;12081;48.614;10.226;2022-12-18T09:42:24;-5.40;99.90
23801;DHT22;12081;48.614;10.226;2022-12-18T09:45:12;-5.40;99.90
23801;DHT22;12081;48.614;10.226;2022-12-18T09:48:02;-5.40;99.90
23801;DHT22;12081;48.614;10.226;2022-12-18T09:50:48;-5.40;99.90
23801;DHT22;12081;48.614;10.226;2022-12-18T09:53:35;-5.20;99.90
23801;DHT22;12081;48.614;10.226;2022-12-18T09:56:22;-5.20;99.90
23801;DHT22;12081;48.614;10.226;2022-12-18T09:59:24;-5.10;99.90
23801;DHT22;12081;48.614;10.226;2022-12-18T10:02:18;-5.00;99.90
23801;DHT22;12081;48.614;10.226;2022-12-18T10:05:17;-5.00;99.90
23801;DHT22;12081;48.614;10.226;2022-12-18T10:14:31;-4.90;99.90
23801;DHT22;12081;48.614;10.226;2022-12-18T10:17:41;-4.80;99.90
23801;DHT22;12081;48.614;10.226;2022-12-18T10:23:29;-4.80;99.90
23801;DHT22;12081;48.614;10.226;2022-12-18T10:26:17;-4.90;99.90
23801;DHT22;12081;48.614;10.226;2022-12-18T10:29:03;-5.00;99.90
23801;DHT22;12081;48.614;10.226;2022-12-18T10:31:48;-4.60;99.90
23801;DHT22;12081;48.614;10.226;2022-12-18T10:34:32;-4.90;99.90
23801;DHT22;12081;48.614;10.226;2022-12-18T10:37:21;-4.90;99.90
23801;DHT22;12081;48.614;10.226;2022-12-18T10:40:14;-4.80;99.90
23801;DHT22;12081;48.614;10.226;2022-12-18T10:43:12;-4.80;99.90
23801;DHT22;12081;48.614;10.226;2022-12-18T10:46:04;-4.80;99.90
23801;DHT22;12081;48.614;10.226;2022-12-18T10:48:56;-4.70;99.90
23801;DHT22;12081;48.614;10.226;2022-12-18T10:51:40;-4.70;99.90
23801;DHT22;12081;48.614;10.226;2022-12-18T10:54:25;-4.60;99.90
23801;DHT22;12081;48.614;10.226;2022-12-18T10:57:20;-4.60;99.90
23801;DHT22;12081;48.614;10.226;2022-12-18T11:00:28;-4.60;99.90
23801;DHT22;12081;48.614;10.226;2022-12-18T11:03:43;-4.60;99.90
23801;DHT22;12081;48.614;10.226;2022-12-18T11:06:28;-4.60;99.90
23801;DHT22;12081;48.614;10.226;2022-12-18T11:09:21;-4.60;99.90
23801;DHT22;12081;48.614;10.226;2022-12-18T11:12:17;-4.50;99.90
23801;DHT22;12081;48.614;10.226;2022-12-18T11:15:01;-4.50;99.90
23801;DHT22;12081;48.614;10.226;2022-12-18T11:17:48;-4.50;99.90
23801;DHT22;12081;48.614;10.226;2022-12-18T11:20:41;-4.50;99.90
23801;DHT22;12081;48.614;10.226;2022-12-18T11:23:26;-4.40;99.90
23801;DHT22;12081;48.614;10.226;2022-12-18T11:26:11;-4.40;99.90
23801;DHT22;12081;48.614;10.226;2022-12-18T11:29:10;-4.40;99.90
23801;DHT22;12081;48.614;10.226;2022-12-18T11:38:24;-4.50;99.90
23801;DHT22;12081;48.614;10.226;2022-12-18T11:44:08;-4.30;99.90
23801;DHT22;12081;48.614;10.226;2022-12-18T11:47:05;-4.20;99.90
23801;DHT22;12081;48.614;10.226;2022-12-18T11:49:55;-4.10;99.90
23801;DHT22;12081;48.614;10.226;2022-12-18T11:52:40;-4.10;99.90
23801;DHT22;12081;48.614;10.226;2022-12-18T11:55:36;-4.00;99.90
23801;DHT22;12081;48.614;10.226;2022-12-18T12:01:28;-4.00;99.90
23801;DHT22;12081;48.614;10.226;2022-12-18T12:04:38;-4.10;99.90
23801;DHT22;12081;48.614;10.226;2022-12-18T12:13:44;-4.20;99.90
23801;DHT22;12081;48.614;10.226;2022-12-18T12:16:57;-4.20;99.90
23801;DHT22;12081;48.614;10.226;2022-12-18T12:20:01;-4.20;99.90
23801;DHT22;12081;48.614;10.226;2022-12-18T12:23:20;-4.20;99.90
23801;DHT22;12081;48.614;10.226;2022-12-18T12:26:11;-4.20;99.90
23801;DHT22;12081;48.614;10.226;2022-12-18T12:29:09;-4.30;99.90
23801;DHT22;12081;48.614;10.226;2022-12-18T12:32:30;-4.30;99.90
23801;DHT22;12081;48.614;10.226;2022-12-18T12:35:47;-4.40;99.90
23801;DHT22;12081;48.614;10.226;2022-12-18T12:38:58;-4.40;99.90
23801;DHT22;12081;48.614;10.226;2022-12-18T12:41:45;-4.40;99.90
23801;DHT22;12081;48.614;10.226;2022-12-18T12:44:55;-4.40;99.90
23801;DHT22;12081;48.614;10.226;2022-12-18T12:47:42;-4.40;99.90
23801;DHT22;12081;48.614;10.226;2022-12-18T12:50:33;-4.40;99.90
23801;DHT22;12081;48.614;10.226;2022-12-18T12:53:36;-4.30;99.90
23801;DHT22;12081;48.614;10.226;2022-12-18T12:56:21;-4.40;99.90
23801;DHT22;12081;48.614;10.226;2022-12-18T13:00:07;-4.40;99.90
23801;DHT22;12081;48.614;10.226;2022-12-18T13:02:23;-4.40;99.90
23801;DHT22;12081;48.614;10.226;2022-12-18T13:05:21;-4.40;99.90
23801;DHT22;12081;48.614;10.226;2022-12-18T13:08:10;-4.30;99.90
23801;DHT22;12081;48.614;10.226;2022-12-18T13:10:55;-4.40;99.90
23801;DHT22;12081;48.614;10.226;2022-12-18T13:13:59;-4.40;99.90
23801;DHT22;12081;48.614;10.226;2022-12-18T13:16:44;-4.60;99.90
23801;DHT22;12081;48.614;10.226;2022-12-18T13:19:28;-4.60;99.90
23801;DHT22;12081;48.614;10.226;2022-12-18T13:22:29;-4.60;99.90
23801;DHT22;12081;48.614;10.226;2022-12-18T13:25:31;-4.40;99.90
23801;DHT22;12081;48.614;10.226;2022-12-18T13:28:20;-4.40;99.90
23801;DHT22;12081;48.614;10.226;2022-12-18T13:31:05;-4.40;99.90
23801;DHT22;12081;48.614;10.226;2022-12-18T13:33:49;-4.40;99.90
23801;DHT22;12081;48.614;10.226;2022-12-18T13:36:34;-4.50;99.90
23801;DHT22;12081;48.614;10.226;2022-12-18T13:44:50;-4.40;99.90
23801;DHT22;12081;48.614;10.226;2022-12-18T13:47:36;-4.40;99.90
23801;DHT22;12081;48.614;10.226;2022-12-18T13:50:25;-4.40;99.90
23801;DHT22;12081;48.614;10.226;2022-12-18T13:53:20;-4.50;99.90
23801;DHT22;12081;48.614;10.226;2022-12-18T13:56:05;-4.60;99.90
23801;DHT22;12081;48.614;10.226;2022-12-18T13:59:13;-4.20;99.90
23801;DHT22;12081;48.614;10.226;2022-12-18T14:02:00;-4.60;99.90
23801;DHT22;12081;48.614;10.226;2022-12-18T14:04:46;-4.60;99.90
23801;DHT22;12081;48.614;10.226;2022-12-18T14:07:31;-4.60;99.90
23801;DHT22;12081;48.614;10.226;2022-12-18T14:10:17;-4.60;99.90
23801;DHT22;12081;48.614;10.226;2022-12-18T14:13:07;-4.60;99.90
23801;DHT22;12081;48.614;10.226;2022-12-18T14:15:53;-4.60;99.90
23801;DHT22;12081;48.614;10.226;2022-12-18T14:18:50;-4.70;99.90
23801;DHT22;12081;48.614;10.226;2022-12-18T14:21:38;-4.70;99.90
23801;DHT22;12081;48.614;10.226;2022-12-18T14:24:22;-4.70;99.90
23801;DHT22;12081;48.614;10.226;2022-12-18T14:27:24;-4.80;99.90
23801;DHT22;12081;48.614;10.226;2022-12-18T14:30:39;-4.80;99.90
23801;DHT22;12081;48.614;10.226;2022-12-18T14:33:27;-4.80;99.90
23801;DHT22;12081;48.614;10.226;2022-12-18T14:36:19;-4.80;99.90
23801;DHT22;12081;48.614;10.226;2022-12-18T14:39:04;-4.90;99.90
23801;DHT22;12081;48.614;10.226;2022-12-18T14:41:49;-4.90;99.90
23801;DHT22;12081;48.614;10.226;2022-12-18T14:44:34;-4.90;99.90
23801;DHT22;12081;48.614;10.226;2022-12-18T14:47:20;-5.00;99.90
23801;DHT22;12081;48.614;10.226;2022-12-18T14:50:13;-5.00;99.90
23801;DHT22;12081;48.614;10.226;2022-12-18T14:52:58;-5.10;99.90
23801;DHT22;12081;48.614;10.226;2022-12-18T14:55:46;-5.10;99.90
23801;DHT22;12081;48.614;10.226;2022-12-18T14:58:32;-5.10;99.90
23801;DHT22;12081;48.614;10.226;2022-12-18T15:01:22;-5.20;99.90
23801;DHT22;12081;48.614;10.226;2022-12-18T15:04:29;-5.20;99.90
23801;DHT22;12081;48.614;10.226;2022-12-18T15:07:18;-5.20;99.90
23801;DHT22;12081;48.614;10.226;2022-12-18T15:10:21;-5.30;99.90
23801;DHT22;12081;48.614;10.226;2022-12-18T15:13:22;-5.30;99.90
23801;DHT22;12081;48.614;10.226;2022-12-18T15:16:11;-5.30;99.90
23801;DHT22;12081;48.614;10.226;2022-12-18T15:18:57;-5.30;99.90
23801;DHT22;12081;48.614;10.226;2022-12-18T15:21:43;-5.30;99.90
23801;DHT22;12081;48.614;10.226;2022-12-18T15:24:31;-5.30;99.90
23801;DHT22;12081;48.614;10.226;2022-12-18T15:30:24;-5.40;99.90
23801;DHT22;12081;48.614;10.226;2022-12-18T15:33:26;-5.40;99.90
23801;DHT22;12081;48.614;10.226;2022-12-18T15:36:13;-5.30;99.90
23801;DHT22;12081;48.614;10.226;2022-12-18T15:38:58;-5.40;99.90
23801;DHT22;12081;48.614;10.226;2022-12-18T15:41:42;-5.40;99.90
23801;DHT22;12081;48.614;10.226;2022-12-18T15:44:47;-5.40;99.90
23801;DHT22;12081;48.614;10.226;2022-12-18T15:47:32;-5.40;99.90
23801;DHT22;12081;48.614;10.226;2022-12-18T15:50:17;-5.40;99.90
23801;DHT22;12081;48.614;10.226;2022-12-18T15:53:02;-5.50;99.90
23801;DHT22;12081;48.614;10.226;2022-12-18T15:55:47;-5.50;99.90
23801;DHT22;12081;48.614;10.226;2022-12-18T15:58:50;-5.40;99.90
23801;DHT22;12081;48.614;10.226;2022-12-18T16:01:35;-5.50;99.90
23801;DHT22;12081;48.614;10.226;2022-12-18T16:04:20;-5.50;99.90
23801;DHT22;12081;48.614;10.226;2022-12-18T16:07:07;-5.50;99.90
23801;DHT22;12081;48.614;10.226;2022-12-18T16:09:52;-5.60;99.90
23801;DHT22;12081;48.614;10.226;2022-12-18T16:12:37;-5.60;99.90
23801;DHT22;12081;48.614;10.226;2022-12-18T16:15:21;-5.60;99.90
23801;DHT22;12081;48.614;10.226;2022-12-18T16:18:06;-5.60;99.90
23801;DHT22;12081;48.614;10.226;2022-12-18T16:20:51;-5.60;99.90
23801;DHT22;12081;48.614;10.226;2022-12-18T16:23:35;-5.60;99.90
23801;DHT22;12081;48.614;10.226;2022-12-18T16:26:20;-5.60;99.90
23801;DHT22;12081;48.614;10.226;2022-12-18T16:29:04;-5.60;99.90
23801;DHT22;12081;48.614;10.226;2022-12-18T16:31:49;-5.60;99.90
23801;DHT22;12081;48.614;10.226;2022-12-18T16:34:34;-5.60;99.90
23801;DHT22;12081;48.614;10.226;2022-12-18T16:37:19;-5.60;99.90
23801;DHT22;12081;48.614;10.226;2022-12-18T16:40:03;-5.60;99.90
23801;DHT22;12081;48.614;10.226;2022-12-18T16:42:48;-5.60;99.90
23801;DHT22;12081;48.614;10.226;2022-12-18T16:45:33;-5.60;99.90
23801;DHT22;12081;48.614;10.226;2022-12-18T16:48:17;-5.70;99.90
23801;DHT22;12081;48.614;10.226;2022-12-18T16:51:04;-5.70;99.90
23801;DHT22;12081;48.614;10.226;2022-12-18T16:53:48;-5.70;99.90
23801;DHT22;12081;48.614;10.226;2022-12-18T16:56:33;-5.70;99.90
23801;DHT22;12081;48.614;10.226;2022-12-18T16:59:18;-5.60;99.90
23801;DHT22;12081;48.614;10.226;2022-12-18T17:02:03;-5.70;99.90
23801;DHT22;12081;48.614;10.226;2022-12-18T17:04:47;-5.70;99.90
23801;DHT22;12081;48.614;10.226;2022-12-18T17:07:32;-5.70;99.90
23801;DHT22;12081;48.614;10.226;2022-12-18T17:10:16;-5.70;99.90
23801;DHT22;12081;48.614;10.226;2022-12-18T17:13:01;-5.70;99.90
23801;DHT22;12081;48.614;10.226;2022-12-18T17:15:46;-5.70;99.90
23801;DHT22;12081;48.614;10.226;2022-12-18T17:18:31;-5.70;99.90
23801;DHT22;12081;48.614;10.226;2022-12-18T17:21:16;-5.70;99.90
23801;DHT22;12081;48.614;10.226;2022-12-18T17:24:00;-5.80;99.90
23801;DHT22;12081;48.614;10.226;2022-12-18T17:26:46;-5.80;99.90
23801;DHT22;12081;48.614;10.226;2022-12-18T17:29:31;-5.80;99.90
23801;DHT22;12081;48.614;10.226;2022-12-18T17:32:16;-5.80;99.90
23801;DHT22;12081;48.614;10.226;2022-12-18T17:35:01;-5.80;99.90
23801;DHT22;12081;48.614;10.226;2022-12-18T17:37:45;-5.80;99.90
23801;DHT22;12081;48.614;10.226;2022-12-18T17:40:34;-5.80;99.90
23801;DHT22;12081;48.614;10.226;2022-12-18T17:43:19;-5.80;99.90
23801;DHT22;12081;48.614;10.226;2022-12-18T17:46:05;-5.90;99.90
23801;DHT22;12081;48.614;10.226;2022-12-18T17:48:49;-5.90;99.90
23801;DHT22;12081;48.614;10.226;2022-12-18T17:51:34;-5.90;99.90
23801;DHT22;12081;48.614;10.226;2022-12-18T17:54:18;-5.90;99.90
23801;DHT22;12081;48.614;10.226;2022-12-18T17:57:03;-5.90;99.90
23801;DHT22;12081;48.614;10.226;2022-12-18T17:59:48;-5.90;99.90
23801;DHT22;12081;48.614;10.226;2022-12-18T18:02:33;-5.90;99.90
23801;DHT22;12081;48.614;10.226;2022-12-18T18:05:17;-5.90;99.90
23801;DHT22;12081;48.614;10.226;2022-12-18T18:08:01;-5.90;99.90
23801;DHT22;12081;48.614;10.226;2022-12-18T18:10:46;-5.90;99.90
23801;DHT22;12081;48.614;10.226;2022-12-18T18:13:32;-5.90;99.90